Vidsel, Sweden

12:05 PM CEST on July 23, 2016 (GMT +0200)
Vidsel Air Base | | Change Station

Elev 597 ft 65.88 °N, 20.14 °E | Updated 15 minutes ago

Clear
Clear
75 °F
Feels Like 75 °F
N
2
Wind Variable Wind from Variable

Today
High -- | Low -- °F
--% Chance of Precip.
Yesterday
High -- | Low -- °F
Precip. -- in
Pressure 30.12 in
Visibility 6.2 miles
Clouds
Dew Point 52 °F
Humidity 44%
Rainfall 0.00 in
Snow Depth Not available.
2:52 AM 10:36 PM
Waning Gibbous, 86% visible
METAR ESPE 230950Z AUTO VRB02KT 9999 NCD 24/11 Q1020
Pressure 30.12 in
Visibility 6.2 miles
Clouds
Dew Point 52 °F
Humidity 44%
Rainfall 0.00 in
Snow Depth Not available.
2:52 AM 10:36 PM
Waning Gibbous, 86% visible
METAR ESPE 230950Z AUTO VRB02KT 9999 NCD 24/11 Q1020

10-Day Weather Forecast

×

Almanac

Astronomy

Jul. 23, 2016 Rise Set
Actual Time
Civil Twilight
Nautical Twilight
Astronomical Twilight
Moon
Length of Visible Light
Length of Day
Tomorrow will be .
, % of the Moon is Illuminated

Today's Extremes

Country Highs Country Lows

Community

WunderPhotos

Upload Photos

1,926,790 photos uploaded!

WunderBlog® & News

Nearby

Air Quality

  Air Quality AQ Index Pollutant
Not available.

Snow Depth

Station Depth Elevation

Earthquake Activity

City Distance Mag. Time & Date
Minimum magnitude displayed is 2.5.

Coastal Water Temperatures

Place Temperature

Stations

Nearby Weather Stations

Station Location Temp. Windchill Dew Point Humidity Wind Precip. Elev Updated Type